Time;durP1;ratioP1;P1;durP2;ratioP2;P2;SDS_P1;SDS_P2;PMS_P1;PMS_P2;Temp;Humidity;BMP_temperature;BMP_pressure;BME280_temperature;BME280_humidity;BME280_pressure;Samples;Min_cycle;Max_cycle;Signal;HPM_P1;HPM_P2
2022/10/08 00:01:33;;;;;;;4.03;2.50;;;18.90;99.90;;;;;;4195946;28;20319;-74
2022/10/08 00:03:37;;;;;;;4.07;2.42;;;18.90;99.90;;;;;;4196165;28;20219;-74
2022/10/08 00:05:41;;;;;;;4.32;2.83;;;18.90;99.90;;;;;;4203540;28;20264;-74
2022/10/08 00:07:44;;;;;;;3.30;2.38;;;18.90;99.90;;;;;;4196733;28;20268;-74
2022/10/08 00:09:46;;;;;;;5.32;2.50;;;18.90;99.90;;;;;;4193642;28;20596;-74
2022/10/08 00:11:49;;;;;;;5.50;2.50;;;18.90;99.90;;;;;;4194977;28;20211;-74
2022/10/08 00:13:53;;;;;;;6.20;2.90;;;18.90;99.90;;;;;;4189207;28;20265;-74
2022/10/08 00:15:55;;;;;;;5.03;2.80;;;18.90;99.90;;;;;;4195790;28;20215;-74
2022/10/08 00:17:58;;;;;;;5.53;2.60;;;18.90;99.90;;;;;;4196293;28;20268;-74
2022/10/08 00:20:00;;;;;;;5.82;2.83;;;18.90;99.90;;;;;;4195652;28;20269;-74
2022/10/08 00:22:03;;;;;;;4.18;2.80;;;18.90;99.90;;;;;;4196192;28;20606;-73
2022/10/08 00:24:07;;;;;;;4.32;3.00;;;18.90;99.90;;;;;;4189985;28;20729;-74
2022/10/08 00:26:10;;;;;;;4.85;2.78;;;18.90;99.90;;;;;;4187926;28;20639;-74
2022/10/08 00:28:13;;;;;;;4.47;2.60;;;18.90;99.90;;;;;;4197046;28;20211;-73
2022/10/08 00:30:15;;;;;;;5.13;2.63;;;18.90;99.90;;;;;;4195177;28;20215;-73
2022/10/08 00:32:18;;;;;;;5.38;2.78;;;18.90;99.90;;;;;;4193801;28;21011;-74
2022/10/08 00:34:22;;;;;;;4.72;2.47;;;18.90;99.90;;;;;;4196033;28;20237;-74
2022/10/08 00:36:27;;;;;;;5.32;2.85;;;18.90;99.90;;;;;;4190189;28;20295;-74
2022/10/08 00:38:31;;;;;;;5.30;2.80;;;18.90;99.90;;;;;;4193632;28;20325;-74
2022/10/08 00:40:41;;;;;;;5.43;2.80;;;18.90;99.90;;;;;;4195466;28;20211;-74
2022/10/08 00:42:43;;;;;;;3.75;2.50;;;18.90;99.90;;;;;;4195565;28;20211;-74
2022/10/08 00:44:55;;;;;;;5.35;2.67;;;18.80;99.90;;;;;;4198049;28;20578;-74
2022/10/08 00:46:57;;;;;;;5.35;3.05;;;18.80;99.90;;;;;;4185934;28;20730;-74
2022/10/08 00:49:02;;;;;;;4.22;2.45;;;18.90;99.90;;;;;;4195851;28;20239;-73
2022/10/08 00:51:05;;;;;;;5.20;2.63;;;18.90;99.90;;;;;;4195332;28;20219;-74
2022/10/08 00:53:09;;;;;;;3.65;2.38;;;18.90;99.90;;;;;;4195647;28;20215;-74
2022/10/08 00:55:15;;;;;;;4.60;2.60;;;18.90;99.90;;;;;;4195440;28;20712;-74
2022/10/08 00:57:18;;;;;;;6.38;2.88;;;18.80;99.90;;;;;;4195119;28;20284;-73
2022/10/08 00:59:21;;;;;;;5.07;2.58;;;18.80;99.90;;;;;;4195642;28;20663;-74
2022/10/08 01:01:23;;;;;;;7.15;3.30;;;18.90;99.90;;;;;;4192486;28;20219;-74
2022/10/08 01:03:26;;;;;;;4.13;2.35;;;18.90;99.90;;;;;;4193921;28;20219;-74
2022/10/08 01:05:42;;;;;;;4.68;2.75;;;18.90;99.90;;;;;;4195494;28;20219;-74
2022/10/08 01:07:50;;;;;;;4.70;2.70;;;18.90;99.90;;;;;;4195268;28;20211;-74
2022/10/08 01:09:58;;;;;;;3.90;2.70;;;18.90;99.90;;;;;;4182629;28;20234;-74
2022/10/08 01:12:10;;;;;;;4.35;2.75;;;18.80;99.90;;;;;;4195398;28;20214;-73
2022/10/08 01:14:24;;;;;;;4.03;2.70;;;18.90;99.90;;;;;;4203705;28;20292;-74
2022/10/08 01:16:34;;;;;;;5.05;2.67;;;18.90;99.90;;;;;;4199230;28;20211;-74
2022/10/08 01:18:48;;;;;;;5.95;2.67;;;18.90;99.90;;;;;;4200866;28;20256;-74
2022/10/08 01:20:59;;;;;;;5.22;2.50;;;18.90;99.90;;;;;;4202487;28;20626;-74
2022/10/08 01:23:21;;;;;;;6.15;2.60;;;18.90;99.90;;;;;;4203285;28;20253;-74
2022/10/08 01:25:33;;;;;;;4.93;2.60;;;18.90;99.90;;;;;;4201934;28;20281;-74
2022/10/08 01:27:42;;;;;;;5.10;2.65;;;18.90;99.90;;;;;;4198536;28;20222;-74
2022/10/08 01:29:49;;;;;;;3.65;2.53;;;18.80;99.90;;;;;;4203049;28;20997;-74
2022/10/08 01:31:54;;;;;;;4.88;2.50;;;18.90;99.90;;;;;;4203286;28;20218;-74
2022/10/08 01:34:01;;;;;;;4.30;2.70;;;18.90;99.90;;;;;;4198715;28;20210;-74
2022/10/08 01:36:05;;;;;;;4.60;2.53;;;18.90;99.90;;;;;;4200965;28;20223;-74
2022/10/08 01:38:10;;;;;;;4.85;2.65;;;18.90;99.90;;;;;;4203412;28;20565;-74
2022/10/08 01:40:16;;;;;;;4.70;2.63;;;18.80;99.90;;;;;;4200941;28;20210;-74
2022/10/08 01:42:22;;;;;;;4.85;2.58;;;18.80;99.90;;;;;;4200547;28;20214;-74
2022/10/08 01:44:32;;;;;;;5.68;2.88;;;18.90;99.90;;;;;;4191125;28;20268;-74
2022/10/08 01:46:39;;;;;;;3.80;2.50;;;18.90;99.90;;;;;;4202585;28;20218;-74
2022/10/08 01:48:44;;;;;;;4.82;2.40;;;18.80;99.90;;;;;;4205075;28;20203;-74
2022/10/08 01:50:52;;;;;;;4.90;2.60;;;18.90;99.90;;;;;;4196813;28;20239;-74
2022/10/08 01:52:58;;;;;;;3.20;2.10;;;18.90;99.90;;;;;;4199193;28;20214;-74
2022/10/08 01:55:05;;;;;;;4.25;2.70;;;18.90;99.90;;;;;;4198380;28;20296;-74
2022/10/08 01:57:10;;;;;;;4.78;2.72;;;18.90;99.90;;;;;;4199544;28;20252;-74
2022/10/08 01:59:15;;;;;;;5.18;3.10;;;18.80;99.90;;;;;;4204767;28;20215;-74
2022/10/08 02:01:26;;;;;;;5.75;2.67;;;18.90;99.90;;;;;;4203647;28;20231;-74
2022/10/08 02:03:28;;;;;;;4.15;2.10;;;18.80;99.90;;;;;;4200670;28;20276;-73
2022/10/08 02:05:36;;;;;;;4.90;2.50;;;18.80;99.90;;;;;;4201835;28;20219;-74
2022/10/08 02:07:41;;;;;;;5.00;2.53;;;18.80;99.90;;;;;;4196919;28;20213;-74
2022/10/08 02:09:45;;;;;;;6.40;2.88;;;18.80;99.90;;;;;;4199981;28;20235;-74
2022/10/08 02:11:47;;;;;;;4.60;2.35;;;18.80;99.90;;;;;;4200199;28;20212;-73
2022/10/08 02:13:49;;;;;;;5.13;2.53;;;18.80;99.90;;;;;;4203941;28;20215;-74
2022/10/08 02:15:58;;;;;;;4.45;2.38;;;18.80;99.90;;;;;;4203900;28;20219;-74
2022/10/08 02:18:11;;;;;;;4.80;2.70;;;18.80;99.90;;;;;;4204897;28;20264;-73
2022/10/08 02:20:18;;;;;;;3.83;2.30;;;18.80;99.90;;;;;;4205382;28;20286;-73
2022/10/08 02:22:26;;;;;;;4.97;2.53;;;18.80;99.90;;;;;;4204651;28;20649;-74
2022/10/08 02:24:33;;;;;;;4.85;2.33;;;18.80;99.90;;;;;;4205604;28;20222;-74
2022/10/08 02:26:40;;;;;;;5.13;2.55;;;18.80;99.90;;;;;;4204723;28;20215;-74
2022/10/08 02:28:47;;;;;;;4.43;2.47;;;18.80;99.90;;;;;;4204563;28;20219;-73
2022/10/08 02:30:53;;;;;;;4.28;2.40;;;18.80;99.90;;;;;;4202886;28;20235;-73
2022/10/08 02:33:01;;;;;;;4.38;2.63;;;18.80;99.90;;;;;;4206402;28;20285;-74
2022/10/08 02:35:11;;;;;;;4.05;2.20;;;18.80;99.90;;;;;;4204818;28;20219;-74
2022/10/08 02:37:17;;;;;;;4.82;2.65;;;18.80;99.90;;;;;;4201594;28;20260;-74
2022/10/08 02:39:20;;;;;;;5.03;2.78;;;18.80;99.90;;;;;;4203091;28;20215;-73
2022/10/08 02:41:28;;;;;;;3.35;2.15;;;18.80;99.90;;;;;;4198720;28;20612;-73
2022/10/08 02:43:37;;;;;;;4.22;2.47;;;18.80;99.90;;;;;;4204379;28;20280;-73
2022/10/08 02:45:45;;;;;;;4.03;2.30;;;18.80;99.90;;;;;;4203215;28;21070;-74
2022/10/08 02:47:54;;;;;;;4.22;2.50;;;18.80;99.90;;;;;;4202831;28;20591;-74
2022/10/08 02:50:01;;;;;;;3.97;2.50;;;18.80;99.90;;;;;;4198395;28;20323;-74
2022/10/08 02:52:07;;;;;;;6.50;2.83;;;18.80;99.90;;;;;;4202577;28;20210;-73
2022/10/08 02:54:11;;;;;;;5.03;2.63;;;18.80;99.90;;;;;;4203842;28;20223;-74
2022/10/08 02:56:18;;;;;;;4.93;2.42;;;18.80;99.90;;;;;;4202163;28;20239;-74
2022/10/08 02:58:21;;;;;;;4.10;2.25;;;18.80;99.90;;;;;;4201128;28;20218;-74
2022/10/08 03:00:24;;;;;;;3.85;2.30;;;18.80;99.90;;;;;;4201513;28;20260;-74
2022/10/08 03:02:33;;;;;;;5.00;2.80;;;18.80;99.90;;;;;;4190663;28;20226;-73
2022/10/08 03:04:38;;;;;;;4.93;2.63;;;18.80;99.90;;;;;;4201572;28;20263;-74
2022/10/08 03:06:41;;;;;;;3.90;2.13;;;18.80;99.90;;;;;;4201648;28;20257;-74
2022/10/08 03:08:47;;;;;;;3.83;2.33;;;18.80;99.90;;;;;;4200700;28;20264;-74
2022/10/08 03:10:50;;;;;;;5.15;2.53;;;18.80;99.90;;;;;;4200882;28;20239;-74
2022/10/08 03:12:56;;;;;;;5.03;2.50;;;18.80;99.90;;;;;;4203177;28;20299;-73
2022/10/08 03:14:59;;;;;;;3.67;2.40;;;18.80;99.90;;;;;;4202749;28;20214;-73
2022/10/08 03:17:01;;;;;;;5.18;2.80;;;18.80;99.90;;;;;;4202291;28;20218;-74
2022/10/08 03:19:05;;;;;;;5.10;2.75;;;18.80;99.90;;;;;;4200244;28;20215;-73
2022/10/08 03:21:08;;;;;;;4.43;2.45;;;18.80;99.90;;;;;;4204263;28;20218;-74
2022/10/08 03:23:12;;;;;;;3.53;2.13;;;18.80;99.90;;;;;;4204953;28;20222;-74
2022/10/08 03:25:16;;;;;;;3.30;2.20;;;18.80;99.90;;;;;;4198504;28;20223;-74
2022/10/08 03:27:18;;;;;;;4.57;2.45;;;18.80;99.90;;;;;;4204049;28;20967;-74
2022/10/08 03:29:21;;;;;;;4.20;2.28;;;18.80;99.90;;;;;;4198021;28;20215;-73
2022/10/08 03:31:23;;;;;;;3.42;2.17;;;18.80;99.90;;;;;;4192046;28;20281;-74
2022/10/08 03:33:25;;;;;;;3.90;2.20;;;18.80;99.90;;;;;;4202421;28;20681;-74
2022/10/08 03:35:28;;;;;;;4.18;2.42;;;18.80;99.90;;;;;;4202997;28;20227;-74
2022/10/08 03:37:30;;;;;;;4.82;2.50;;;18.80;99.90;;;;;;4203113;28;20280;-74
2022/10/08 03:39:32;;;;;;;5.03;2.65;;;18.80;99.90;;;;;;4201100;28;20260;-74
2022/10/08 03:41:36;;;;;;;4.72;2.70;;;18.80;99.90;;;;;;4198174;28;20556;-74
2022/10/08 03:43:38;;;;;;;4.43;2.45;;;18.80;99.90;;;;;;4201288;28;20215;-74
2022/10/08 03:45:50;;;;;;;3.83;2.30;;;18.70;99.90;;;;;;4200070;28;20277;-74
2022/10/08 03:47:52;;;;;;;3.30;2.05;;;18.70;99.90;;;;;;4198972;28;20207;-74
2022/10/08 03:49:54;;;;;;;3.63;2.45;;;18.80;99.90;;;;;;4201296;28;20647;-74
2022/10/08 03:51:56;;;;;;;3.40;2.10;;;18.80;99.90;;;;;;4201599;28;20271;-74
2022/10/08 03:53:59;;;;;;;3.53;2.25;;;18.80;99.90;;;;;;4204391;28;20237;-74
2022/10/08 03:56:01;;;;;;;3.90;2.17;;;18.80;99.90;;;;;;4203568;28;20616;-74
2022/10/08 03:58:05;;;;;;;4.22;2.55;;;18.70;99.90;;;;;;4202267;28;20257;-74
2022/10/08 04:00:09;;;;;;;4.68;2.10;;;18.80;99.90;;;;;;4203996;28;20256;-75
2022/10/08 04:02:11;;;;;;;4.20;2.35;;;18.70;99.90;;;;;;4203924;28;20215;-74
2022/10/08 04:04:13;;;;;;;3.50;2.05;;;18.70;99.90;;;;;;4199286;28;20255;-74
2022/10/08 04:06:16;;;;;;;4.50;2.22;;;18.70;99.90;;;;;;4204183;28;20260;-74
2022/10/08 04:08:18;;;;;;;3.72;2.08;;;18.70;99.90;;;;;;4206354;28;20211;-74
2022/10/08 04:10:20;;;;;;;4.20;2.25;;;18.70;99.90;;;;;;4203561;28;20234;-74
2022/10/08 04:12:23;;;;;;;3.65;1.95;;;18.70;99.90;;;;;;4200315;28;20223;-74
2022/10/08 04:14:26;;;;;;;3.70;2.35;;;18.70;99.90;;;;;;4203627;28;20206;-74
2022/10/08 04:16:29;;;;;;;3.60;2.10;;;18.70;99.90;;;;;;4205219;28;20305;-74
2022/10/08 04:18:31;;;;;;;2.67;2.15;;;18.70;99.90;;;;;;4199867;28;20257;-74
2022/10/08 04:20:34;;;;;;;3.60;2.55;;;18.70;99.90;;;;;;4204469;28;20641;-74
2022/10/08 04:22:36;;;;;;;3.55;2.13;;;18.70;99.90;;;;;;4200817;28;20214;-74
2022/10/08 04:24:38;;;;;;;3.38;2.10;;;18.70;99.90;;;;;;4201550;28;20223;-74
2022/10/08 04:26:40;;;;;;;4.22;2.20;;;18.70;99.90;;;;;;4202561;28;20658;-74
2022/10/08 04:28:44;;;;;;;3.95;2.35;;;18.70;99.90;;;;;;4201209;28;20281;-74
2022/10/08 04:30:57;;;;;;;4.28;2.38;;;18.70;99.90;;;;;;4200804;28;20242;-74
2022/10/08 04:32:59;;;;;;;4.22;2.63;;;18.70;99.90;;;;;;4204313;28;20226;-74
2022/10/08 04:35:01;;;;;;;3.33;2.15;;;18.70;99.90;;;;;;4197857;28;20267;-74
2022/10/08 04:37:04;;;;;;;3.80;2.25;;;18.70;99.90;;;;;;4203353;28;20274;-74
2022/10/08 04:39:06;;;;;;;4.95;2.42;;;18.70;99.90;;;;;;4201578;28;20218;-74
2022/10/08 04:41:10;;;;;;;4.20;2.28;;;18.70;99.90;;;;;;4200672;28;20223;-74
2022/10/08 04:43:13;;;;;;;3.58;2.42;;;18.70;99.90;;;;;;4201273;28;20268;-74
2022/10/08 04:45:15;;;;;;;4.72;2.40;;;18.70;99.90;;;;;;4200470;28;20631;-74
2022/10/08 04:47:19;;;;;;;5.90;2.83;;;18.60;99.90;;;;;;4198819;28;20241;-74
2022/10/08 04:49:21;;;;;;;5.13;2.67;;;18.60;99.90;;;;;;4202353;28;20218;-74
2022/10/08 04:51:25;;;;;;;2.75;2.10;;;18.70;99.90;;;;;;4198474;28;20234;-74
2022/10/08 04:53:28;;;;;;;4.20;2.63;;;18.60;99.90;;;;;;4203318;28;20240;-74
2022/10/08 04:55:31;;;;;;;3.33;2.00;;;18.70;99.90;;;;;;4203504;28;20222;-74
2022/10/08 04:57:33;;;;;;;4.55;2.25;;;18.60;99.90;;;;;;4206436;28;20767;-74
2022/10/08 04:59:35;;;;;;;4.97;2.33;;;18.70;99.90;;;;;;4196709;28;20223;-74
2022/10/08 05:01:38;;;;;;;4.35;2.30;;;18.70;99.90;;;;;;4195350;28;20228;-74
2022/10/08 05:03:44;;;;;;;4.75;2.55;;;18.60;99.90;;;;;;4204157;28;20219;-74
2022/10/08 05:05:46;;;;;;;3.67;2.20;;;18.60;99.90;;;;;;4201381;28;20271;-74
2022/10/08 05:07:48;;;;;;;3.10;2.03;;;18.60;99.90;;;;;;4198597;28;20229;-74
2022/10/08 05:09:51;;;;;;;2.67;2.13;;;18.60;99.90;;;;;;4199990;28;20628;-74
2022/10/08 05:11:53;;;;;;;4.28;2.25;;;18.70;99.90;;;;;;4202044;28;20226;-74
2022/10/08 05:13:57;;;;;;;3.10;2.15;;;18.60;99.90;;;;;;4198645;28;20261;-74
2022/10/08 05:16:04;;;;;;;3.63;2.20;;;18.60;99.90;;;;;;4198987;28;20206;-74
2022/10/08 05:18:06;;;;;;;3.75;2.25;;;18.60;99.90;;;;;;4203536;28;21105;-74
2022/10/08 05:20:10;;;;;;;5.15;2.33;;;18.60;99.90;;;;;;4191281;28;20257;-74
2022/10/08 05:22:12;;;;;;;2.88;2.15;;;18.60;99.90;;;;;;4194794;28;20636;-74
2022/10/08 05:24:14;;;;;;;4.68;2.30;;;18.60;99.90;;;;;;4198505;28;20223;-74
2022/10/08 05:26:19;;;;;;;4.30;2.58;;;18.60;99.90;;;;;;4200558;28;20222;-74
2022/10/08 05:28:21;;;;;;;3.85;2.08;;;18.60;99.90;;;;;;4201778;28;20661;-74
2022/10/08 05:30:24;;;;;;;3.22;2.03;;;18.60;99.90;;;;;;4202411;28;20267;-74
2022/10/08 05:32:26;;;;;;;3.95;2.25;;;18.60;99.90;;;;;;4200859;28;20260;-74
2022/10/08 05:34:28;;;;;;;3.90;2.10;;;18.60;99.90;;;;;;4199946;28;20215;-74
2022/10/08 05:36:33;;;;;;;3.58;2.03;;;18.60;99.90;;;;;;4201689;28;20218;-74
2022/10/08 05:38:36;;;;;;;4.45;2.47;;;18.60;99.90;;;;;;4202963;28;20215;-74
2022/10/08 05:40:38;;;;;;;4.88;2.50;;;18.60;99.90;;;;;;4199037;28;20259;-74
2022/10/08 05:42:40;;;;;;;3.83;2.20;;;18.60;99.90;;;;;;4203792;28;20214;-74
2022/10/08 05:44:43;;;;;;;3.85;2.22;;;18.60;99.90;;;;;;4202910;28;20222;-74
2022/10/08 05:46:45;;;;;;;2.78;1.83;;;18.60;99.90;;;;;;4207073;28;20223;-74
2022/10/08 05:48:47;;;;;;;5.30;2.05;;;18.60;99.90;;;;;;4206379;28;20226;-74
2022/10/08 05:50:49;;;;;;;4.40;2.30;;;18.60;99.90;;;;;;4204857;28;20565;-75
2022/10/08 05:52:53;;;;;;;3.63;2.38;;;18.60;99.90;;;;;;4205393;28;20691;-72
2022/10/08 05:54:55;;;;;;;3.85;2.17;;;18.60;99.90;;;;;;4206355;28;20214;-74
2022/10/08 05:56:58;;;;;;;3.38;1.80;;;18.60;99.90;;;;;;4204922;28;20272;-73
2022/10/08 05:59:00;;;;;;;4.60;1.95;;;18.60;99.90;;;;;;4201707;28;20211;-74
2022/10/08 06:01:04;;;;;;;3.92;2.58;;;18.60;99.90;;;;;;4204106;28;20647;-73
2022/10/08 06:03:06;;;;;;;4.03;2.15;;;18.60;99.90;;;;;;4206278;28;20569;-73
2022/10/08 06:05:09;;;;;;;3.70;2.00;;;18.60;99.90;;;;;;4206125;28;20219;-73
2022/10/08 06:07:11;;;;;;;5.32;2.03;;;18.60;99.90;;;;;;4205392;28;20215;-74
2022/10/08 06:09:17;;;;;;;2.42;2.03;;;18.60;99.90;;;;;;4202678;28;20223;-73
2022/10/08 06:11:19;;;;;;;3.65;2.08;;;18.60;99.90;;;;;;4203070;28;20214;-74
2022/10/08 06:13:22;;;;;;;4.57;2.35;;;18.60;99.90;;;;;;4203699;28;20226;-73
2022/10/08 06:15:25;;;;;;;5.13;2.22;;;18.60;99.90;;;;;;4204177;28;20253;-73
2022/10/08 06:17:27;;;;;;;4.35;2.25;;;18.60;99.90;;;;;;4207371;28;20236;-73
2022/10/08 06:19:29;;;;;;;3.33;2.08;;;18.50;99.90;;;;;;4201425;28;20227;-73
2022/10/08 06:21:32;;;;;;;3.88;1.90;;;18.60;99.90;;;;;;4204498;28;20268;-74
2022/10/08 06:23:34;;;;;;;3.00;1.98;;;18.60;99.90;;;;;;4203153;28;20626;-73
2022/10/08 06:25:38;;;;;;;3.55;2.10;;;18.60;99.90;;;;;;4204036;28;20222;-73
2022/10/08 06:27:40;;;;;;;5.40;2.42;;;18.60;99.90;;;;;;4200082;28;20620;-73
2022/10/08 06:29:43;;;;;;;3.08;1.98;;;18.60;99.90;;;;;;4201375;28;20257;-73
2022/10/08 06:31:46;;;;;;;4.90;2.20;;;18.60;99.90;;;;;;4200041;28;20239;-73
2022/10/08 06:33:48;;;;;;;3.30;2.10;;;18.60;99.90;;;;;;4200607;28;20220;-73
2022/10/08 06:35:50;;;;;;;2.45;1.88;;;18.60;99.90;;;;;;4207393;28;20267;-73
2022/10/08 06:37:53;;;;;;;3.50;2.05;;;18.60;99.90;;;;;;4199740;28;20271;-73
2022/10/08 06:39:55;;;;;;;5.05;2.22;;;18.50;99.90;;;;;;4205251;28;21038;-73
2022/10/08 06:41:59;;;;;;;3.42;2.20;;;18.60;99.90;;;;;;4203906;28;20215;-74
2022/10/08 06:44:02;;;;;;;3.75;1.95;;;18.50;99.90;;;;;;4201763;28;20219;-73
2022/10/08 06:46:05;;;;;;;3.75;2.20;;;18.60;99.90;;;;;;4204765;28;20351;-74
2022/10/08 06:48:07;;;;;;;3.42;2.15;;;18.50;99.90;;;;;;4201887;28;20252;-74
2022/10/08 06:50:10;;;;;;;3.78;2.15;;;18.50;99.90;;;;;;4207241;28;20215;-73
2022/10/08 06:52:12;;;;;;;6.47;2.38;;;18.50;99.90;;;;;;4203788;28;20234;-73
2022/10/08 06:54:15;;;;;;;3.05;1.60;;;18.60;99.90;;;;;;4202568;28;20211;-73
2022/10/08 06:56:17;;;;;;;4.63;1.98;;;18.50;99.90;;;;;;4202512;28;20265;-73
2022/10/08 06:58:21;;;;;;;4.07;2.50;;;18.50;99.90;;;;;;4203661;28;20214;-73
2022/10/08 07:00:23;;;;;;;3.47;1.92;;;18.60;99.90;;;;;;4205363;28;20240;-73
2022/10/08 07:02:26;;;;;;;3.53;2.15;;;18.60;99.90;;;;;;4199576;28;20624;-73
2022/10/08 07:04:28;;;;;;;3.08;2.13;;;18.60;99.90;;;;;;4202523;28;20222;-73
2022/10/08 07:06:30;;;;;;;3.80;2.10;;;18.50;99.90;;;;;;4206015;28;20661;-73
2022/10/08 07:08:34;;;;;;;2.83;2.08;;;18.60;99.90;;;;;;4195153;28;20269;-73
2022/10/08 07:10:37;;;;;;;3.70;1.95;;;18.50;99.90;;;;;;4204783;28;20239;-73
2022/10/08 07:12:39;;;;;;;2.88;1.90;;;18.60;99.90;;;;;;4200708;28;20654;-73
2022/10/08 07:14:42;;;;;;;3.85;2.22;;;18.60;99.90;;;;;;4201293;28;20260;-73
2022/10/08 07:16:45;;;;;;;3.38;2.08;;;18.60;99.90;;;;;;4203486;28;20260;-73
2022/10/08 07:18:48;;;;;;;3.42;1.85;;;18.60;99.90;;;;;;4200558;28;20260;-73
2022/10/08 07:20:55;;;;;;;3.85;1.92;;;18.60;99.90;;;;;;4201648;28;20260;-73
2022/10/08 07:22:57;;;;;;;3.20;1.90;;;18.60;99.90;;;;;;4201253;28;20278;-73
2022/10/08 07:25:00;;;;;;;4.22;2.08;;;18.60;99.90;;;;;;4203773;28;20569;-73
2022/10/08 07:27:02;;;;;;;3.45;2.00;;;18.60;99.90;;;;;;4201289;28;20276;-74
2022/10/08 07:29:07;;;;;;;5.82;2.20;;;18.70;99.90;;;;;;4205535;28;20226;-74
2022/10/08 07:31:14;;;;;;;3.15;1.83;;;18.60;99.90;;;;;;4206078;28;20219;-73
2022/10/08 07:33:16;;;;;;;2.53;1.80;;;18.60;99.90;;;;;;4199704;28;20231;-73
2022/10/08 07:35:18;;;;;;;3.75;2.03;;;18.60;99.90;;;;;;4200843;28;20223;-73
2022/10/08 07:37:21;;;;;;;3.35;2.03;;;18.70;99.90;;;;;;4204009;28;20218;-73
2022/10/08 07:39:23;;;;;;;2.95;2.13;;;18.60;99.90;;;;;;4204374;28;20685;-74
2022/10/08 07:41:26;;;;;;;5.25;2.45;;;18.70;99.90;;;;;;4202484;28;20223;-74
2022/10/08 07:43:28;;;;;;;4.45;2.15;;;18.70;99.90;;;;;;4198789;28;20211;-74
2022/10/08 07:45:31;;;;;;;4.07;2.22;;;18.70;99.90;;;;;;4202685;28;20225;-74
2022/10/08 07:47:34;;;;;;;3.83;1.98;;;18.70;99.90;;;;;;4200084;28;20261;-74
2022/10/08 07:49:36;;;;;;;3.70;2.10;;;18.70;99.90;;;;;;4204030;28;20218;-74
2022/10/08 07:51:40;;;;;;;3.40;2.20;;;18.60;99.90;;;;;;4200197;28;20728;-74
2022/10/08 07:53:43;;;;;;;4.22;2.08;;;18.70;99.90;;;;;;4201016;28;20764;-74
2022/10/08 07:55:45;;;;;;;3.05;1.83;;;18.70;99.90;;;;;;4202772;28;20219;-74
2022/10/08 07:57:48;;;;;;;3.25;1.80;;;18.70;99.90;;;;;;4199686;28;20259;-74
2022/10/08 07:59:50;;;;;;;2.80;1.92;;;18.70;99.90;;;;;;4200018;28;20659;-74
2022/10/08 08:01:52;;;;;;;2.83;1.83;;;18.60;99.90;;;;;;4200869;28;20271;-74
2022/10/08 08:03:58;;;;;;;3.10;1.95;;;18.70;99.90;;;;;;4198990;28;20651;-74
2022/10/08 08:06:01;;;;;;;3.50;2.00;;;18.70;99.90;;;;;;4202619;28;20280;-74
2022/10/08 08:08:03;;;;;;;3.63;1.98;;;18.70;99.90;;;;;;4201517;28;20708;-74
2022/10/08 08:10:07;;;;;;;4.07;1.98;;;18.70;99.90;;;;;;4201132;28;20231;-74
2022/10/08 08:12:09;;;;;;;3.08;2.00;;;18.70;99.90;;;;;;4202422;28;20465;-74
2022/10/08 08:14:11;;;;;;;3.35;1.98;;;18.70;99.90;;;;;;4199174;28;20308;-74
2022/10/08 08:16:16;;;;;;;3.85;2.20;;;18.70;99.90;;;;;;4201569;28;20254;-74
2022/10/08 08:18:18;;;;;;;4.07;2.08;;;18.70;99.90;;;;;;4204700;28;20267;-74
2022/10/08 08:20:22;;;;;;;3.47;2.10;;;18.70;99.90;;;;;;4198559;28;20264;-74
2022/10/08 08:22:24;;;;;;;3.63;2.08;;;18.70;99.90;;;;;;4201345;28;20218;-74
2022/10/08 08:24:27;;;;;;;3.20;2.03;;;18.70;99.90;;;;;;4204510;28;20304;-74
2022/10/08 08:26:31;;;;;;;2.70;1.70;;;18.70;99.90;;;;;;4200258;28;20546;-74
2022/10/08 08:28:34;;;;;;;3.28;1.70;;;18.70;99.90;;;;;;4200640;28;20263;-74
2022/10/08 08:30:36;;;;;;;3.72;2.20;;;18.70;99.90;;;;;;4198808;28;20223;-74
2022/10/08 08:32:39;;;;;;;3.28;1.70;;;18.70;99.90;;;;;;4199662;28;20260;-74
2022/10/08 08:34:41;;;;;;;4.00;1.90;;;18.70;99.90;;;;;;4201497;28;20292;-73
2022/10/08 08:36:47;;;;;;;3.13;1.80;;;18.70;99.90;;;;;;4200510;28;20273;-74
2022/10/08 08:38:49;;;;;;;3.42;1.90;;;18.70;99.90;;;;;;4200238;28;20252;-74
2022/10/08 08:40:54;;;;;;;3.58;2.10;;;18.70;99.90;;;;;;4201833;28;20260;-74
2022/10/08 08:42:57;;;;;;;3.40;2.00;;;18.70;99.90;;;;;;4203413;28;20994;-74
2022/10/08 08:45:03;;;;;;;3.00;2.00;;;18.80;99.90;;;;;;4204218;28;20315;-74
2022/10/08 08:47:15;;;;;;;2.65;1.65;;;18.70;99.90;;;;;;4196342;28;20316;-74
2022/10/08 08:49:24;;;;;;;3.90;1.92;;;18.70;99.90;;;;;;4199255;28;20249;-74
2022/10/08 08:51:26;;;;;;;3.97;1.92;;;18.70;99.90;;;;;;4201226;28;20289;-74
2022/10/08 08:53:31;;;;;;;3.78;1.90;;;18.70;99.90;;;;;;4199935;28;21515;-75
2022/10/08 08:55:36;;;;;;;3.25;2.00;;;18.70;99.90;;;;;;4198656;28;20558;-74
2022/10/08 08:57:47;;;;;;;3.20;1.63;;;18.80;99.90;;;;;;4198306;28;20268;-74
2022/10/08 08:59:55;;;;;;;2.78;1.98;;;18.80;99.90;;;;;;4197675;28;20218;-74
2022/10/08 09:02:00;;;;;;;3.85;1.85;;;18.70;99.90;;;;;;4199684;28;20259;-75
2022/10/08 09:04:09;;;;;;;3.30;2.03;;;18.70;99.90;;;;;;4199326;28;20206;-74
2022/10/08 09:06:16;;;;;;;2.65;1.90;;;18.70;99.90;;;;;;4204355;28;20242;-74
2022/10/08 09:08:22;;;;;;;3.45;1.98;;;18.80;99.90;;;;;;4200831;28;20269;-74
2022/10/08 09:10:35;;;;;;;3.40;2.03;;;18.80;99.90;;;;;;4200588;28;20233;-74
2022/10/08 09:12:42;;;;;;;2.60;1.95;;;18.80;99.90;;;;;;4202217;28;20725;-74
2022/10/08 09:14:48;;;;;;;3.83;1.80;;;18.80;99.90;;;;;;4199478;28;20238;-74
2022/10/08 09:16:52;;;;;;;3.72;1.90;;;18.80;99.90;;;;;;4197649;28;20272;-74
2022/10/08 09:18:54;;;;;;;3.22;1.90;;;18.80;99.90;;;;;;4199488;28;20274;-74
2022/10/08 09:20:56;;;;;;;3.03;1.90;;;18.80;99.90;;;;;;4203521;28;20720;-74
2022/10/08 09:23:00;;;;;;;3.30;1.80;;;18.80;99.90;;;;;;4198583;28;20560;-74
2022/10/08 09:25:05;;;;;;;3.40;1.92;;;18.90;99.90;;;;;;4204099;28;20272;-74
2022/10/08 09:27:13;;;;;;;3.97;1.90;;;18.80;99.90;;;;;;4201759;28;20636;-74
2022/10/08 09:29:31;;;;;;;3.15;1.80;;;18.80;99.90;;;;;;4202706;28;20274;-74
2022/10/08 09:31:42;;;;;;;3.95;1.60;;;18.80;99.90;;;;;;4198527;28;20215;-74
2022/10/08 09:33:45;;;;;;;2.92;1.80;;;18.80;99.90;;;;;;4197171;28;20605;-74
2022/10/08 09:35:50;;;;;;;2.53;1.42;;;18.80;99.90;;;;;;4199839;28;20573;-74
2022/10/08 09:37:54;;;;;;;2.97;1.77;;;18.80;99.90;;;;;;4201246;28;20214;-74
2022/10/08 09:40:18;;;;;;;4.05;1.80;;;18.80;99.90;;;;;;4199348;28;20261;-74
2022/10/08 09:42:22;;;;;;;3.00;1.80;;;18.80;99.90;;;;;;4198964;28;20226;-74
2022/10/08 09:44:24;;;;;;;3.90;1.75;;;18.80;99.90;;;;;;4200386;28;20806;-74
2022/10/08 09:46:30;;;;;;;1.52;1.20;;;18.80;99.90;;;;;;4200549;28;20274;-74
2022/10/08 09:48:32;;;;;;;4.20;1.65;;;18.80;99.90;;;;;;4198777;28;20263;-74
2022/10/08 09:50:37;;;;;;;4.05;1.85;;;18.80;99.90;;;;;;4200020;28;20211;-74
2022/10/08 09:52:40;;;;;;;2.97;1.80;;;18.80;99.90;;;;;;4201122;28;20982;-74
2022/10/08 09:54:47;;;;;;;3.97;1.73;;;18.80;99.90;;;;;;4204011;28;20234;-74
2022/10/08 09:56:53;;;;;;;3.72;1.70;;;18.80;99.90;;;;;;4198391;28;20247;-74
2022/10/08 09:58:58;;;;;;;3.33;1.90;;;18.80;99.90;;;;;;4201528;28;20272;-74
2022/10/08 10:01:06;;;;;;;2.53;1.65;;;18.80;99.90;;;;;;4202957;28;20257;-74
2022/10/08 10:03:17;;;;;;;3.05;1.70;;;18.80;99.90;;;;;;4199870;28;20276;-74
2022/10/08 10:05:23;;;;;;;2.25;1.60;;;18.80;99.90;;;;;;4201614;28;20620;-74
2022/10/08 10:07:36;;;;;;;2.35;1.45;;;18.80;99.90;;;;;;4197236;28;20311;-74
2022/10/08 10:09:44;;;;;;;4.25;1.70;;;18.80;99.90;;;;;;4203069;28;20230;-74
2022/10/08 10:11:50;;;;;;;3.78;1.63;;;18.80;99.90;;;;;;4196126;28;20284;-74
2022/10/08 10:13:55;;;;;;;3.80;1.67;;;18.80;99.90;;;;;;4203003;28;20238;-74
2022/10/08 10:16:03;;;;;;;3.70;1.88;;;18.80;99.90;;;;;;4203423;28;20261;-74
2022/10/08 10:18:12;;;;;;;2.67;1.60;;;18.80;99.90;;;;;;4202693;28;20237;-74
2022/10/08 10:20:20;;;;;;;2.97;1.45;;;18.80;99.90;;;;;;4202227;28;20215;-74
2022/10/08 10:22:29;;;;;;;3.92;1.65;;;18.80;99.90;;;;;;4199150;28;20623;-74
2022/10/08 10:24:44;;;;;;;2.35;1.50;;;18.80;99.90;;;;;;4198457;28;20976;-74
2022/10/08 10:26:49;;;;;;;4.20;1.60;;;18.80;99.90;;;;;;4197912;28;20601;-74
2022/10/08 10:28:56;;;;;;;2.50;1.45;;;18.80;99.90;;;;;;4198241;28;20223;-74
2022/10/08 10:31:03;;;;;;;2.67;1.52;;;18.90;99.90;;;;;;4199167;28;20222;-74
2022/10/08 10:33:14;;;;;;;4.20;1.92;;;18.80;99.90;;;;;;4204406;28;20218;-74
2022/10/08 10:35:22;;;;;;;2.38;1.55;;;18.80;99.90;;;;;;4202572;28;20283;-75
2022/10/08 10:37:32;;;;;;;3.13;1.52;;;18.80;99.90;;;;;;4204856;28;20628;-74
2022/10/08 10:39:43;;;;;;;4.07;2.22;;;18.80;99.90;;;;;;4202261;28;20226;-74
2022/10/08 10:41:50;;;;;;;2.35;1.45;;;18.80;99.90;;;;;;4203449;28;20659;-75
2022/10/08 10:43:59;;;;;;;2.72;1.50;;;18.90;99.90;;;;;;4196531;28;20223;-74
2022/10/08 10:46:13;;;;;;;3.53;1.55;;;18.80;99.90;;;;;;4201299;28;20258;-74
2022/10/08 10:48:15;;;;;;;2.85;1.67;;;18.80;99.90;;;;;;4206360;28;20202;-74
2022/10/08 10:50:25;;;;;;;2.83;1.70;;;18.90;99.90;;;;;;4205307;28;20268;-74